SAWH Airport Information

Runway Information
Runway 7 Length 9186 ft width 148 ft
Elevation 85 ft Threshold 591 ft Heading 86
Runway 25 Length 9186 ft Width 148 ft
Elevation 74 ft Threshold 525 ft Heading 266
Airport Frequencies
Type RDO Name RDO Frequency 122.1 MHZ
Type TWR Name TWR/APP Frequency 118.1 MHZ
Airport Navaids
Type VOR Name Ushuaia Frequency 113700 KHZ
Airport Weather Information & NOTAM
ADDS - METARS form results

(0812 UTC 22 May 2018)
 
METAR text: SAWH 220800Z 02010KT CAVOK 01/M04 Q1006
Conditions at: SAWH (USHUAIA (ARG-NAV, AR) observed 0800 UTC 22 May 2018
Temperature: 1.0°C (34°F)
Dewpoint: -4.0°C (25°F) [RH = 69%]
Pressure (altimeter): 29.70 inches Hg (1006.0 mb)
Winds: from the NNE (20 degrees) at 12 MPH (10 knots; 5.2 m/s)
Visibility: 6 or more miles (10+ km)
Ceiling: ceiling and visibility are OK
Clouds: unknown
Weather: no significant weather observed at this time